createdAt,value
2018-08-18T00:00:26.098Z,6.07
2018-08-18T00:03:00.261Z,5.70
2018-08-18T00:05:34.543Z,5.10
2018-08-18T00:08:09.245Z,5.80
2018-08-18T00:10:43.527Z,5.77
2018-08-18T00:13:17.909Z,5.20
2018-08-18T00:15:52.287Z,5.73
2018-08-18T00:18:26.671Z,6.10
2018-08-18T00:21:00.952Z,5.67
2018-08-18T00:23:35.190Z,5.57
2018-08-18T00:26:09.393Z,5.10
2018-08-18T00:28:43.704Z,6.00
2018-08-18T00:31:18.182Z,5.23
2018-08-18T00:33:52.410Z,5.40
2018-08-18T00:36:26.712Z,5.07
2018-08-18T00:39:01.378Z,5.10
2018-08-18T00:41:36.038Z,5.00
2018-08-18T00:44:11.134Z,5.40
2018-08-18T00:46:45.443Z,4.80
2018-08-18T00:49:19.790Z,5.43
2018-08-18T00:51:54.090Z,5.40
2018-08-18T00:54:28.385Z,5.30
2018-08-18T00:57:08.063Z,5.13
2018-08-18T00:59:42.284Z,5.73
2018-08-18T01:02:16.573Z,4.93
2018-08-18T01:04:57.961Z,5.80
2018-08-18T01:07:32.790Z,5.40
2018-08-18T01:10:07.017Z,6.17
2018-08-18T01:12:41.349Z,5.60
2018-08-18T01:15:22.886Z,6.20
2018-08-18T01:17:57.346Z,5.43
2018-08-18T01:20:31.555Z,5.20
2018-08-18T01:23:05.847Z,5.30
2018-08-18T01:25:40.075Z,5.00
2018-08-18T01:28:14.466Z,4.87
2018-08-18T01:31:03.179Z,6.10
2018-08-18T01:33:38.290Z,5.57
2018-08-18T01:36:12.600Z,5.07
2018-08-18T01:38:46.904Z,5.10
2018-08-18T01:41:24.821Z,5.30
2018-08-18T01:44:13.898Z,5.77
2018-08-18T01:46:49.486Z,4.77
2018-08-18T01:49:31.818Z,5.47
2018-08-18T01:52:13.714Z,4.97
2018-08-18T01:54:48.003Z,5.60
2018-08-18T01:57:22.990Z,5.40
2018-08-18T01:59:57.159Z,5.27
2018-08-18T02:02:31.418Z,5.00
2018-08-18T02:05:16.124Z,6.20
2018-08-18T02:07:50.401Z,5.80
2018-08-18T02:10:24.810Z,5.50
2018-08-18T02:13:01.299Z,5.53
2018-08-18T02:15:35.454Z,5.60
2018-08-18T02:18:09.774Z,5.80
2018-08-18T02:20:44.170Z,5.63
2018-08-18T02:23:18.326Z,5.67
2018-08-18T02:25:52.728Z,5.90
2018-08-18T02:28:28.014Z,6.13
2018-08-18T02:31:02.426Z,6.17
2018-08-18T02:33:36.672Z,6.63
2018-08-18T02:36:10.998Z,6.17
2018-08-18T02:38:50.814Z,5.67
2018-08-18T02:41:26.258Z,5.70
2018-08-18T02:44:01.077Z,5.40
2018-08-18T02:46:37.671Z,5.07
2018-08-18T02:49:11.965Z,5.80
2018-08-18T02:51:46.319Z,5.43
2018-08-18T02:54:21.735Z,5.07
2018-08-18T02:56:56.042Z,5.30
2018-08-18T02:59:30.334Z,5.13
2018-08-18T03:02:04.798Z,5.40
2018-08-18T03:04:44.326Z,5.03
2018-08-18T03:07:18.485Z,5.10
2018-08-18T03:09:53.284Z,5.17
2018-08-18T03:12:33.000Z,4.97
2018-08-18T03:15:07.685Z,5.50
2018-08-18T03:17:42.269Z,5.47
2018-08-18T03:20:16.696Z,4.73
2018-08-18T03:22:50.915Z,5.67
2018-08-18T03:25:37.102Z,4.93
2018-08-18T03:28:11.290Z,5.40
2018-08-18T03:30:45.542Z,4.73
2018-08-18T03:33:20.012Z,4.87
2018-08-18T03:35:54.256Z,5.30
2018-08-18T03:38:28.668Z,5.50
2018-08-18T03:41:02.973Z,5.80
2018-08-18T03:43:37.326Z,5.47
2018-08-18T03:46:11.668Z,5.50
2018-08-18T03:48:46.184Z,5.80
2018-08-18T03:51:23.131Z,5.83
2018-08-18T03:53:57.440Z,5.80
2018-08-18T03:56:31.710Z,5.23
2018-08-18T03:59:06.150Z,5.07
2018-08-18T04:01:48.758Z,5.17
2018-08-18T04:04:23.949Z,5.10
2018-08-18T04:06:59.038Z,5.30
2018-08-18T04:09:34.432Z,5.10
2018-08-18T04:12:09.999Z,5.57
2018-08-18T04:14:44.390Z,5.33
2018-08-18T04:17:28.709Z,6.50
2018-08-18T04:20:02.951Z,5.87
2018-08-18T04:22:37.228Z,6.30
2018-08-18T04:25:11.569Z,5.47
2018-08-18T04:27:47.070Z,5.00
2018-08-18T04:30:22.085Z,5.47
2018-08-18T04:32:58.770Z,5.27
2018-08-18T04:35:33.594Z,5.50
2018-08-18T04:38:07.811Z,5.87
2018-08-18T04:40:42.038Z,6.27
2018-08-18T04:43:16.386Z,6.40
2018-08-18T04:45:50.698Z,6.53
2018-08-18T04:48:29.710Z,6.20
2018-08-18T04:51:04.070Z,6.87
2018-08-18T04:53:38.388Z,6.60
2018-08-18T04:56:12.704Z,6.73
2018-08-18T04:58:46.996Z,6.60
2018-08-18T05:01:21.294Z,6.77
2018-08-18T05:04:03.010Z,6.67
2018-08-18T05:06:37.362Z,6.80
2018-08-18T05:09:13.117Z,6.93
2018-08-18T05:11:47.414Z,7.17
2018-08-18T05:14:21.533Z,7.03
2018-08-18T05:16:55.670Z,6.77
2018-08-18T05:19:29.989Z,7.03
2018-08-18T05:22:04.274Z,7.37
2018-08-18T05:24:38.514Z,8.00
2018-08-18T05:27:18.241Z,8.20
2018-08-18T05:29:52.418Z,8.37
2018-08-18T05:32:26.597Z,8.57
2018-08-18T05:35:00.870Z,9.70
2018-08-18T05:37:35.159Z,9.77
2018-08-18T05:40:09.478Z,9.23
2018-08-18T05:42:43.794Z,10.10
2018-08-18T05:45:25.006Z,8.90
2018-08-18T05:47:59.316Z,9.70
2018-08-18T05:50:33.686Z,10.03
2018-08-18T05:53:17.878Z,9.57
2018-08-18T05:55:52.273Z,10.00
2018-08-18T05:58:26.709Z,9.67
2018-08-18T06:01:07.344Z,10.07
2018-08-18T06:03:41.582Z,10.20
2018-08-18T06:06:15.891Z,9.87
2018-08-18T06:08:50.274Z,10.80
2018-08-18T06:11:24.697Z,10.20
2018-08-18T06:13:58.965Z,10.07
2018-08-18T06:16:33.403Z,9.93
2018-08-18T06:19:07.542Z,9.80
2018-08-18T06:21:41.774Z,10.13
2018-08-18T06:24:16.050Z,9.23
2018-08-18T06:26:50.389Z,9.90
2018-08-18T06:29:24.745Z,9.60
2018-08-18T06:32:01.153Z,9.90
2018-08-18T06:34:35.627Z,10.37
2018-08-18T06:37:09.745Z,9.20
2018-08-18T06:39:53.182Z,9.60
2018-08-18T06:42:43.173Z,10.00
2018-08-18T06:45:18.905Z,9.67
2018-08-18T06:47:57.546Z,9.50
2018-08-18T06:50:37.119Z,10.03
2018-08-18T06:53:11.349Z,9.93
2018-08-18T06:55:45.650Z,10.07
2018-08-18T06:58:19.946Z,9.40
2018-08-18T07:00:54.247Z,10.10
2018-08-18T07:03:38.210Z,10.03
2018-08-18T07:06:13.106Z,9.70
2018-08-18T07:08:54.317Z,8.83
2018-08-18T07:11:28.629Z,8.67
2018-08-18T07:14:02.898Z,7.37
2018-08-18T07:16:37.093Z,8.00
2018-08-18T07:19:11.458Z,6.80
2018-08-18T07:21:45.782Z,7.57
2018-08-18T07:24:20.082Z,7.07
2018-08-18T07:26:54.381Z,7.30
2018-08-18T07:29:34.455Z,6.80
2018-08-18T07:32:08.769Z,7.20
2018-08-18T07:34:43.074Z,7.20
2018-08-18T07:37:17.395Z,7.13
2018-08-18T07:39:51.639Z,7.67
2018-08-18T07:42:26.077Z,7.27
2018-08-18T07:45:00.462Z,7.47
2018-08-18T07:47:35.635Z,7.50
2018-08-18T07:50:09.946Z,7.13
2018-08-18T07:52:44.367Z,7.73
2018-08-18T07:55:18.654Z,7.77
2018-08-18T07:57:57.805Z,8.10
2018-08-18T08:00:33.241Z,7.90
2018-08-18T08:03:08.826Z,8.13
2018-08-18T08:05:43.539Z,7.10
2018-08-18T08:08:17.929Z,7.67
2018-08-18T08:10:53.985Z,7.10
2018-08-18T08:13:28.310Z,7.10
2018-08-18T08:16:02.478Z,7.47
2018-08-18T08:18:36.770Z,7.03
2018-08-18T08:21:11.170Z,6.07
2018-08-18T08:23:45.489Z,5.90
2018-08-18T08:26:19.777Z,5.30
2018-08-18T08:28:54.123Z,5.27
2018-08-18T08:31:28.543Z,5.43
2018-08-18T08:34:02.866Z,4.43
2018-08-18T08:36:37.042Z,5.00
2018-08-18T08:39:11.314Z,5.10
2018-08-18T08:41:45.605Z,4.90
2018-08-18T08:44:20.018Z,4.83
2018-08-18T08:47:12.549Z,5.27
2018-08-18T08:49:46.766Z,4.53
2018-08-18T08:52:21.106Z,4.10
2018-08-18T08:54:55.393Z,3.40
2018-08-18T08:57:29.686Z,3.33
2018-08-18T09:00:04.420Z,3.60
2018-08-18T09:02:38.566Z,4.07
2018-08-18T09:05:12.871Z,3.50
2018-08-18T09:07:47.258Z,3.67
2018-08-18T09:10:21.672Z,2.80
2018-08-18T09:12:55.958Z,3.80
2018-08-18T09:15:30.196Z,2.60
2018-08-18T09:18:04.582Z,3.10
2018-08-18T09:20:45.152Z,2.80
2018-08-18T09:23:19.469Z,2.93
2018-08-18T09:25:53.850Z,3.03
2018-08-18T09:28:28.378Z,2.73
2018-08-18T09:31:02.566Z,2.83
2018-08-18T09:33:36.828Z,2.40
2018-08-18T09:36:11.148Z,2.33
2018-08-18T09:38:45.553Z,2.73
2018-08-18T09:41:19.862Z,2.43
2018-08-18T09:43:54.242Z,2.27
2018-08-18T09:46:28.544Z,2.30
2018-08-18T09:49:02.847Z,2.40
2018-08-18T09:51:37.222Z,1.93
2018-08-18T09:54:11.566Z,2.20
2018-08-18T09:56:45.861Z,2.30
2018-08-18T09:59:20.100Z,2.63
2018-08-18T10:01:54.668Z,2.40
2018-08-18T10:04:28.933Z,2.60
2018-08-18T10:07:03.348Z,2.50
2018-08-18T10:09:40.281Z,2.57
2018-08-18T10:12:14.570Z,2.70
2018-08-18T10:14:49.033Z,2.70
2018-08-18T10:17:23.447Z,2.57
2018-08-18T10:19:58.302Z,1.87
2018-08-18T10:22:32.462Z,2.03
2018-08-18T10:25:06.754Z,1.93
2018-08-18T10:27:41.063Z,1.37
2018-08-18T10:30:15.404Z,1.00
2018-08-18T10:32:54.362Z,1.60
2018-08-18T10:35:31.325Z,1.50
2018-08-18T10:38:06.374Z,1.37
2018-08-18T10:40:40.528Z,1.37
2018-08-18T10:43:14.998Z,1.53
2018-08-18T10:45:49.334Z,2.00
2018-08-18T10:48:23.769Z,1.70
2018-08-18T10:51:38.607Z,1.60
2018-08-18T10:54:12.810Z,1.70
2018-08-18T10:56:47.031Z,1.90
2018-08-18T10:59:31.420Z,1.80
2018-08-18T11:02:07.101Z,1.40
2018-08-18T11:04:41.334Z,1.60
2018-08-18T11:07:15.889Z,2.03
2018-08-18T11:09:50.334Z,1.80
2018-08-18T11:12:24.535Z,2.10
2018-08-18T11:15:00.082Z,2.10
2018-08-18T11:17:34.434Z,1.70
2018-08-18T11:20:13.990Z,1.77
2018-08-18T11:22:50.713Z,2.00
2018-08-18T11:25:27.259Z,1.80
2018-08-18T11:28:01.777Z,1.43
2018-08-18T11:30:35.953Z,1.60
2018-08-18T11:33:10.257Z,2.00
2018-08-18T11:35:44.558Z,1.80
2018-08-18T11:38:18.981Z,2.23
2018-08-18T11:40:53.290Z,2.17
2018-08-18T11:43:27.851Z,2.30
2018-08-18T11:46:02.014Z,1.93
2018-08-18T11:48:36.442Z,2.03
2018-08-18T11:51:10.598Z,2.00
2018-08-18T11:53:56.858Z,2.70
2018-08-18T11:56:37.606Z,2.20
2018-08-18T11:59:14.933Z,2.70
2018-08-18T12:01:51.204Z,2.30
2018-08-18T12:04:25.398Z,2.73
2018-08-18T12:06:59.798Z,2.20
2018-08-18T12:09:34.016Z,3.27
2018-08-18T12:12:08.221Z,2.67
2018-08-18T12:14:42.433Z,2.20
2018-08-18T12:17:16.705Z,2.80
2018-08-18T12:19:54.265Z,2.67
2018-08-18T12:22:28.438Z,3.27
2018-08-18T12:25:02.829Z,2.80
2018-08-18T12:27:37.118Z,2.67
2018-08-18T12:30:23.210Z,2.57
2018-08-18T12:32:57.642Z,2.40
2018-08-18T12:35:32.870Z,2.83
2018-08-18T12:38:07.066Z,2.60
2018-08-18T12:40:41.421Z,2.10
2018-08-18T12:43:17.350Z,2.20
2018-08-18T12:45:55.570Z,2.03
2018-08-18T12:48:29.898Z,2.60
2018-08-18T12:51:05.070Z,2.20
2018-08-18T12:53:44.533Z,2.60
2018-08-18T12:56:20.543Z,2.40
2018-08-18T12:58:54.731Z,2.50
2018-08-18T13:01:42.574Z,2.40
2018-08-18T13:04:18.837Z,1.90
2018-08-18T13:06:53.467Z,2.43
2018-08-18T13:09:28.186Z,1.97
2018-08-18T13:12:02.476Z,2.83
2018-08-18T13:14:36.762Z,1.87
2018-08-18T13:17:11.003Z,2.30
2018-08-18T13:19:45.305Z,2.20
2018-08-18T13:22:19.617Z,2.57
2018-08-18T13:24:53.902Z,2.57
2018-08-18T13:27:28.307Z,2.70
2018-08-18T13:30:02.618Z,1.83
2018-08-18T13:32:37.086Z,1.90
2018-08-18T13:35:11.414Z,1.77
2018-08-18T13:37:45.685Z,2.40
2018-08-18T13:40:23.440Z,2.53
2018-08-18T13:42:57.758Z,2.47
2018-08-18T13:45:46.930Z,2.40
2018-08-18T13:48:21.135Z,2.43
2018-08-18T13:50:55.450Z,2.60
2018-08-18T13:53:32.655Z,2.30
2018-08-18T13:56:08.231Z,2.53
2018-08-18T13:58:42.543Z,2.13
2018-08-18T14:01:28.895Z,2.30
2018-08-18T14:04:03.361Z,2.00
2018-08-18T14:06:43.209Z,2.40
2018-08-18T14:09:17.394Z,2.33
2018-08-18T14:11:56.915Z,2.53
2018-08-18T14:14:31.078Z,2.00
2018-08-18T14:17:05.394Z,2.90
2018-08-18T14:19:39.815Z,2.20
2018-08-18T14:22:17.377Z,2.20
2018-08-18T14:24:51.701Z,2.50
2018-08-18T14:27:26.149Z,2.70
2018-08-18T14:30:00.477Z,2.30
2018-08-18T14:32:34.832Z,2.47
2018-08-18T14:35:09.042Z,2.27
2018-08-18T14:37:43.512Z,2.27
2018-08-18T14:40:18.657Z,2.43
2018-08-18T14:42:53.034Z,2.20
2018-08-18T14:45:27.360Z,2.97
2018-08-18T14:48:01.648Z,3.23
2018-08-18T14:50:35.788Z,2.43
2018-08-18T14:53:15.602Z,2.10
2018-08-18T14:55:49.755Z,3.63
2018-08-18T14:58:29.714Z,2.40
2018-08-18T15:01:10.923Z,2.70
2018-08-18T15:03:45.100Z,2.97
2018-08-18T15:06:19.495Z,3.00
2018-08-18T15:08:53.896Z,3.50
2018-08-18T15:11:28.279Z,2.80
2018-08-18T15:14:02.510Z,3.03
2018-08-18T15:16:36.722Z,2.97
2018-08-18T15:19:11.174Z,3.13
2018-08-18T15:21:45.446Z,3.30
2018-08-18T15:24:19.785Z,3.37
2018-08-18T15:26:54.019Z,3.20
2018-08-18T15:29:28.361Z,3.13
2018-08-18T15:32:02.496Z,2.73
2018-08-18T15:34:36.822Z,3.00
2018-08-18T15:37:11.222Z,3.23
2018-08-18T15:39:45.514Z,3.20
2018-08-18T15:42:19.783Z,3.00
2018-08-18T15:45:00.034Z,3.20
2018-08-18T15:47:34.967Z,3.00
2018-08-18T15:50:09.202Z,2.93
2018-08-18T15:52:43.503Z,3.17
2018-08-18T15:55:17.943Z,2.90
2018-08-18T15:57:52.082Z,3.27
2018-08-18T16:00:33.716Z,2.33
2018-08-18T16:03:08.126Z,2.53
2018-08-18T16:05:42.410Z,2.60
2018-08-18T16:08:16.679Z,2.40
2018-08-18T16:10:51.022Z,2.90
2018-08-18T16:13:25.417Z,2.40
2018-08-18T16:15:59.649Z,2.20
2018-08-18T16:18:33.929Z,2.33
2018-08-18T16:21:19.138Z,2.30
2018-08-18T16:23:53.558Z,2.50
2018-08-18T16:26:27.826Z,2.53
2018-08-18T16:29:02.106Z,1.77
2018-08-18T16:31:36.423Z,1.97
2018-08-18T16:34:10.676Z,2.07
2018-08-18T16:36:46.810Z,2.40
2018-08-18T16:39:21.151Z,2.40
2018-08-18T16:41:55.478Z,2.10
2018-08-18T16:44:29.739Z,2.10
2018-08-18T16:47:04.642Z,2.07
2018-08-18T16:49:38.885Z,2.13
2018-08-18T16:52:13.111Z,1.90
2018-08-18T16:54:47.425Z,2.80
2018-08-18T16:57:21.701Z,1.90
2018-08-18T16:59:55.974Z,2.20
2018-08-18T17:02:35.130Z,1.80
2018-08-18T17:05:09.830Z,2.40
2018-08-18T17:07:44.233Z,2.23
2018-08-18T17:10:18.601Z,2.10
2018-08-18T17:12:52.900Z,2.53
2018-08-18T17:15:27.222Z,2.43
2018-08-18T17:18:01.532Z,2.03
2018-08-18T17:20:35.909Z,2.07
2018-08-18T17:23:10.210Z,2.50
2018-08-18T17:25:44.378Z,1.80
2018-08-18T17:28:18.738Z,2.00
2018-08-18T17:30:53.354Z,2.40
2018-08-18T17:33:28.242Z,2.27
2018-08-18T17:36:02.490Z,2.10
2018-08-18T17:38:36.808Z,1.70
2018-08-18T17:41:11.170Z,2.10
2018-08-18T17:43:45.486Z,1.70
2018-08-18T17:46:19.849Z,1.90
2018-08-18T17:48:54.168Z,1.90
2018-08-18T17:51:28.477Z,1.80
2018-08-18T17:54:02.862Z,1.70
2018-08-18T17:56:37.139Z,2.00
2018-08-18T17:59:11.418Z,2.03
2018-08-18T18:01:57.173Z,1.73
2018-08-18T18:04:31.366Z,1.80
2018-08-18T18:07:06.050Z,1.77
2018-08-18T18:09:40.452Z,1.83
2018-08-18T18:12:21.031Z,2.10
2018-08-18T18:14:55.741Z,2.00
2018-08-18T18:17:29.934Z,2.17
2018-08-18T18:20:04.348Z,1.70
2018-08-18T18:22:45.713Z,1.47
2018-08-18T18:25:21.211Z,2.00
2018-08-18T18:27:55.586Z,2.10
2018-08-18T18:30:29.949Z,1.90
2018-08-18T18:33:04.298Z,1.83
2018-08-18T18:35:38.473Z,1.63
2018-08-18T18:38:12.803Z,1.73
2018-08-18T18:40:47.083Z,1.70
2018-08-18T18:43:21.387Z,1.67
2018-08-18T18:45:55.751Z,1.90
2018-08-18T18:48:29.971Z,1.70
2018-08-18T18:51:04.427Z,1.87
2018-08-18T18:53:46.105Z,1.90
2018-08-18T18:56:20.617Z,1.70
2018-08-18T18:58:54.924Z,1.63
2018-08-18T19:01:29.287Z,1.90
2018-08-18T19:04:03.418Z,1.70
2018-08-18T19:06:52.497Z,1.73
2018-08-18T19:09:26.792Z,1.80
2018-08-18T19:12:01.022Z,1.90
2018-08-18T19:14:35.295Z,1.83
2018-08-18T19:17:09.617Z,2.10
2018-08-18T19:19:43.985Z,1.80
2018-08-18T19:22:18.297Z,1.90
2018-08-18T19:24:52.634Z,1.80
2018-08-18T19:27:26.926Z,2.30
2018-08-18T19:30:01.223Z,1.97
2018-08-18T19:32:35.603Z,1.70
2018-08-18T19:35:10.223Z,1.80
2018-08-18T19:37:50.138Z,2.17
2018-08-18T19:40:24.354Z,2.00
2018-08-18T19:42:58.639Z,2.13
2018-08-18T19:45:32.842Z,2.70
2018-08-18T19:48:07.410Z,2.20
2018-08-18T19:50:52.544Z,2.70
2018-08-18T19:53:30.671Z,2.30
2018-08-18T19:56:08.216Z,1.93
2018-08-18T19:58:42.361Z,2.43
2018-08-18T20:01:16.766Z,2.47
2018-08-18T20:03:51.669Z,2.07
2018-08-18T20:06:25.893Z,2.37
2018-08-18T20:09:00.306Z,2.20
2018-08-18T20:11:34.769Z,1.93
2018-08-18T20:14:09.022Z,2.43
2018-08-18T20:16:43.291Z,2.30
2018-08-18T20:19:17.587Z,2.40
2018-08-18T20:21:52.102Z,2.20
2018-08-18T20:24:26.367Z,2.10
2018-08-18T20:27:00.543Z,2.33
2018-08-18T20:29:34.867Z,2.20
2018-08-18T20:32:09.042Z,2.20
2018-08-18T20:34:43.395Z,2.27
2018-08-18T20:37:17.613Z,1.87
2018-08-18T20:39:51.979Z,2.13
2018-08-18T20:42:31.944Z,2.10
2018-08-18T20:45:06.162Z,2.20
2018-08-18T20:47:41.934Z,3.07
2018-08-18T20:50:16.089Z,2.70
2018-08-18T20:52:52.278Z,3.10
2018-08-18T20:55:26.607Z,2.40
2018-08-18T20:58:01.009Z,2.50
2018-08-18T21:00:35.925Z,2.20
2018-08-18T21:03:10.794Z,2.50
2018-08-18T21:05:45.178Z,2.67
2018-08-18T21:08:20.061Z,2.93
2018-08-18T21:10:54.275Z,2.77
2018-08-18T21:13:28.549Z,2.47
2018-08-18T21:16:02.766Z,2.97
2018-08-18T21:18:37.034Z,2.80
2018-08-18T21:21:24.986Z,3.00
2018-08-18T21:23:59.257Z,3.20
2018-08-18T21:26:33.721Z,2.87
2018-08-18T21:29:08.011Z,2.30
2018-08-18T21:31:42.340Z,3.07
2018-08-18T21:34:16.724Z,2.47
2018-08-18T21:36:50.938Z,2.70
2018-08-18T21:39:25.222Z,2.87
2018-08-18T21:41:59.526Z,3.17
2018-08-18T21:44:33.826Z,2.50
2018-08-18T21:47:08.170Z,2.83
2018-08-18T21:49:43.603Z,3.10
2018-08-18T21:52:17.957Z,2.50
2018-08-18T21:54:52.327Z,3.07
2018-08-18T21:57:26.730Z,2.70
2018-08-18T22:00:00.902Z,2.80
2018-08-18T22:02:41.406Z,2.83
2018-08-18T22:05:15.619Z,3.20
2018-08-18T22:07:51.910Z,2.90
2018-08-18T22:10:26.103Z,2.80
2018-08-18T22:13:00.384Z,2.90
2018-08-18T22:15:34.605Z,3.03
2018-08-18T22:18:08.933Z,2.80
2018-08-18T22:20:43.362Z,3.70
2018-08-18T22:23:17.605Z,3.40
2018-08-18T22:25:51.941Z,3.30
2018-08-18T22:28:26.197Z,3.03
2018-08-18T22:31:00.422Z,3.30
2018-08-18T22:33:38.860Z,3.83
2018-08-18T22:36:13.270Z,3.40
2018-08-18T22:38:47.648Z,3.70
2018-08-18T22:41:22.184Z,3.57
2018-08-18T22:43:57.284Z,3.57
2018-08-18T22:46:31.602Z,3.33
2018-08-18T22:49:06.066Z,3.90
2018-08-18T22:51:40.392Z,4.07
2018-08-18T22:54:14.650Z,4.13
2018-08-18T22:56:54.509Z,4.23
2018-08-18T22:59:28.982Z,4.13
2018-08-18T23:02:03.317Z,4.00
2018-08-18T23:04:38.688Z,3.97
2018-08-18T23:07:12.963Z,4.23
2018-08-18T23:09:47.262Z,3.73
2018-08-18T23:12:21.493Z,3.67
2018-08-18T23:14:55.710Z,4.10
2018-08-18T23:17:29.949Z,4.50
2018-08-18T23:20:04.538Z,4.30
2018-08-18T23:22:52.749Z,4.50
2018-08-18T23:25:28.481Z,4.70
2018-08-18T23:28:02.631Z,4.80
2018-08-18T23:30:37.626Z,5.27
2018-08-18T23:33:11.809Z,4.83
2018-08-18T23:35:46.081Z,5.20
2018-08-18T23:38:20.426Z,4.77
2018-08-18T23:40:59.088Z,5.27
2018-08-18T23:43:33.235Z,5.43
2018-08-18T23:46:07.445Z,5.17
2018-08-18T23:48:41.757Z,5.47
2018-08-18T23:51:16.155Z,5.13
2018-08-18T23:53:50.415Z,5.23
2018-08-18T23:56:28.514Z,5.20
2018-08-18T23:59:02.878Z,5.50
